Time;durP1;ratioP1;P1;durP2;ratioP2;P2;SDS_P1;SDS_P2;PMS_P1;PMS_P2;Temp;Humidity;BMP_temperature;BMP_pressure;BME280_temperature;BME280_humidity;BME280_pressure;Samples;Min_cycle;Max_cycle;Signal;HPM_P1;HPM_P2
2022/12/08 00:00:27;;;;;;;11.57;6.50;;;3.30;99.90;;;;;;5019975;28;20224;-77
2022/12/08 00:03:16;;;;;;;9.53;5.90;;;3.30;99.90;;;;;;5025754;28;20608;-78
2022/12/08 00:09:22;;;;;;;10.03;5.33;;;3.40;99.90;;;;;;5037197;28;20784;-78
2022/12/08 00:12:14;;;;;;;7.50;4.10;;;3.40;99.90;;;;;;5042952;28;20237;-78
2022/12/08 00:15:03;;;;;;;9.37;5.13;;;3.40;99.90;;;;;;5028208;28;20642;-79
2022/12/08 00:17:52;;;;;;;7.73;3.83;;;3.40;99.90;;;;;;5034342;28;20225;-79
2022/12/08 00:20:40;;;;;;;7.97;3.60;;;3.40;99.90;;;;;;5036943;28;20729;-79
2022/12/08 00:23:29;;;;;;;6.47;3.23;;;3.40;99.90;;;;;;5052197;28;20221;-78
2022/12/08 00:26:20;;;;;;;6.73;3.10;;;3.40;99.90;;;;;;5040875;28;20224;-79
2022/12/08 00:29:09;;;;;;;5.50;3.40;;;3.40;99.90;;;;;;5036832;28;20618;-77
2022/12/08 00:32:06;;;;;;;5.77;2.73;;;3.40;99.90;;;;;;5043627;28;20239;-77
2022/12/08 00:34:54;;;;;;;5.10;3.00;;;3.40;99.90;;;;;;5059057;28;20256;-78
2022/12/08 00:37:43;;;;;;;7.63;3.23;;;3.40;99.90;;;;;;5057185;28;20229;-78
2022/12/08 00:40:32;;;;;;;5.07;2.93;;;3.20;99.90;;;;;;5055637;28;20240;-78
2022/12/08 00:43:22;;;;;;;6.73;2.90;;;3.30;99.90;;;;;;5033034;28;20989;-77
2022/12/08 00:46:11;;;;;;;5.20;2.83;;;3.30;99.90;;;;;;5053741;28;20743;-76
2022/12/08 00:48:59;;;;;;;4.00;2.47;;;3.30;99.90;;;;;;5056169;28;20227;-76
2022/12/08 00:51:48;;;;;;;5.00;2.37;;;3.20;99.90;;;;;;5043706;28;20224;-78
2022/12/08 00:54:37;;;;;;;5.63;2.60;;;3.20;99.90;;;;;;5055656;28;20223;-79
2022/12/08 00:57:26;;;;;;;4.90;3.00;;;3.10;99.90;;;;;;5048964;28;20533;-77
2022/12/08 01:00:17;;;;;;;8.03;2.83;;;3.10;99.90;;;;;;5059080;28;20224;-79
2022/12/08 01:03:05;;;;;;;4.67;2.63;;;3.10;99.90;;;;;;5053491;28;20713;-77
2022/12/08 01:05:54;;;;;;;5.70;2.80;;;3.00;99.90;;;;;;5058087;28;20234;-76
2022/12/08 01:08:44;;;;;;;6.23;3.27;;;3.00;99.90;;;;;;5048610;28;20232;-79
2022/12/08 01:11:33;;;;;;;4.60;2.50;;;3.00;99.90;;;;;;5054109;28;20286;-78
2022/12/08 01:14:22;;;;;;;7.87;3.40;;;2.80;99.90;;;;;;5036887;28;20231;-76
2022/12/08 01:17:12;;;;;;;6.17;2.90;;;2.80;99.90;;;;;;5038799;28;20251;-75
2022/12/08 01:20:01;;;;;;;9.90;2.70;;;2.90;99.90;;;;;;5061307;28;20224;-78
2022/12/08 01:22:51;;;;;;;6.43;2.70;;;3.00;99.90;;;;;;5055456;28;20897;-76
2022/12/08 01:25:39;;;;;;;6.63;2.97;;;3.20;99.90;;;;;;5057587;28;20246;-78
2022/12/08 01:28:28;;;;;;;5.83;2.40;;;3.10;99.90;;;;;;5058329;28;20224;-77
2022/12/08 01:31:19;;;;;;;8.03;3.13;;;3.10;99.90;;;;;;5039284;28;20679;-77
2022/12/08 01:34:12;;;;;;;4.83;2.40;;;3.20;99.90;;;;;;5044044;28;20304;-77
2022/12/08 01:37:01;;;;;;;5.17;2.83;;;3.20;99.90;;;;;;5043759;28;20223;-76
2022/12/08 01:39:50;;;;;;;6.07;3.20;;;3.20;99.90;;;;;;5044818;28;20231;-76
2022/12/08 01:42:38;;;;;;;5.30;2.60;;;3.10;99.90;;;;;;5038343;28;20239;-76
2022/12/08 01:45:29;;;;;;;5.30;2.70;;;3.20;99.90;;;;;;5041769;28;20224;-77
2022/12/08 01:48:22;;;;;;;4.33;2.17;;;3.10;99.90;;;;;;5055375;28;20690;-76
2022/12/08 01:51:12;;;;;;;5.83;2.47;;;3.10;99.90;;;;;;5041497;28;20728;-77
2022/12/08 01:54:02;;;;;;;7.90;2.70;;;3.10;99.90;;;;;;5041206;28;20721;-77
2022/12/08 01:56:58;;;;;;;5.13;2.53;;;3.10;99.90;;;;;;5033242;28;20526;-77
2022/12/08 01:59:50;;;;;;;8.80;3.10;;;3.10;99.90;;;;;;5043619;28;20831;-77
2022/12/08 02:02:48;;;;;;;5.23;2.60;;;3.10;99.90;;;;;;5041520;28;20216;-76
2022/12/08 02:05:38;;;;;;;5.17;2.50;;;3.20;99.90;;;;;;5039536;28;20243;-77
2022/12/08 02:08:30;;;;;;;7.60;2.93;;;3.20;99.90;;;;;;5038284;28;20226;-77
2022/12/08 02:11:19;;;;;;;7.93;2.70;;;3.10;99.90;;;;;;5038959;28;20232;-77
2022/12/08 02:14:11;;;;;;;4.57;2.43;;;3.10;99.90;;;;;;5030977;28;20242;-76
2022/12/08 02:17:08;;;;;;;5.87;2.60;;;3.00;99.90;;;;;;5041696;28;20733;-78
2022/12/08 02:20:16;;;;;;;5.00;2.53;;;3.10;99.90;;;;;;5047235;28;21419;-77
2022/12/08 02:23:13;;;;;;;6.10;2.90;;;3.10;99.90;;;;;;5059159;28;20227;-77
2022/12/08 02:26:45;;;;;;;5.30;2.77;;;3.10;99.90;;;;;;5058574;28;20304;-79
2022/12/08 02:30:07;;;;;;;4.70;2.33;;;3.10;99.90;;;;;;5057471;28;20232;-78
2022/12/08 02:33:41;;;;;;;4.93;2.80;;;3.10;99.90;;;;;;5031328;28;20243;-78
2022/12/08 02:36:34;;;;;;;5.33;2.60;;;3.20;99.90;;;;;;5043999;28;20228;-78
2022/12/08 02:39:30;;;;;;;7.00;3.20;;;3.10;99.90;;;;;;5041817;28;20228;-79
2022/12/08 02:42:27;;;;;;;11.97;3.90;;;3.00;99.90;;;;;;5040036;28;20234;-78
2022/12/08 02:45:22;;;;;;;9.13;2.80;;;3.10;99.90;;;;;;5044327;28;20216;-77
2022/12/08 02:48:16;;;;;;;5.90;2.90;;;3.00;99.90;;;;;;5044337;28;20222;-78
2022/12/08 02:51:05;;;;;;;6.10;3.33;;;3.10;99.90;;;;;;5055688;28;20216;-79
2022/12/08 02:53:55;;;;;;;9.07;3.77;;;3.00;99.90;;;;;;5042836;28;20710;-78
2022/12/08 02:57:02;;;;;;;5.03;3.27;;;3.10;99.90;;;;;;5040951;28;20222;-77
2022/12/08 03:00:02;;;;;;;8.03;3.40;;;3.00;99.90;;;;;;5057786;28;20216;-77
2022/12/08 03:03:04;;;;;;;7.27;3.67;;;3.00;99.90;;;;;;5043909;28;20244;-76
2022/12/08 03:06:05;;;;;;;8.63;3.10;;;2.90;99.90;;;;;;5040947;28;20247;-77
2022/12/08 03:09:00;;;;;;;10.33;3.73;;;3.00;99.90;;;;;;5047867;28;20258;-75
2022/12/08 03:11:55;;;;;;;7.10;3.67;;;3.00;99.90;;;;;;5045413;28;20236;-76
2022/12/08 03:14:48;;;;;;;5.40;3.13;;;2.90;99.90;;;;;;5051145;28;20223;-79
2022/12/08 03:17:38;;;;;;;6.27;3.67;;;2.90;99.90;;;;;;5050895;28;20224;-78
2022/12/08 03:20:30;;;;;;;6.70;3.47;;;2.80;99.90;;;;;;5059259;28;20240;-78
2022/12/08 03:23:20;;;;;;;5.73;3.73;;;2.70;99.90;;;;;;5058488;28;20238;-77
2022/12/08 03:26:16;;;;;;;7.93;3.90;;;2.80;99.90;;;;;;5046484;28;20225;-77
2022/12/08 03:29:05;;;;;;;7.87;3.53;;;2.80;99.90;;;;;;5049139;28;20227;-77
2022/12/08 03:31:58;;;;;;;6.20;3.73;;;2.80;99.90;;;;;;5041346;28;20598;-78
2022/12/08 03:34:49;;;;;;;10.43;4.40;;;2.90;99.90;;;;;;5040636;28;20305;-79
2022/12/08 03:37:40;;;;;;;6.83;3.90;;;2.90;99.90;;;;;;5056680;28;20219;-78
2022/12/08 03:40:28;;;;;;;8.10;4.03;;;2.80;99.90;;;;;;5058107;28;20224;-77
2022/12/08 03:43:18;;;;;;;6.20;4.17;;;2.80;99.90;;;;;;5041414;28;20231;-76
2022/12/08 03:46:07;;;;;;;6.67;4.00;;;2.80;99.90;;;;;;5039365;28;20239;-76
2022/12/08 03:48:56;;;;;;;8.50;4.57;;;2.80;99.90;;;;;;5057104;28;20211;-76
2022/12/08 03:51:45;;;;;;;7.47;4.33;;;2.70;99.90;;;;;;5055224;28;20216;-77
2022/12/08 03:54:34;;;;;;;7.50;4.93;;;2.80;99.90;;;;;;5046033;28;20587;-75
2022/12/08 03:57:23;;;;;;;7.93;4.77;;;2.70;99.90;;;;;;5057271;28;20536;-75
2022/12/08 04:00:16;;;;;;;9.17;5.20;;;2.70;99.90;;;;;;5045118;28;20679;-77
2022/12/08 04:03:05;;;;;;;9.40;5.23;;;2.70;99.90;;;;;;5042614;28;20230;-77
2022/12/08 04:05:54;;;;;;;7.67;4.83;;;2.70;99.90;;;;;;5060142;28;20235;-77
2022/12/08 04:08:43;;;;;;;10.40;5.10;;;2.70;99.90;;;;;;5049250;28;20714;-77
2022/12/08 04:11:31;;;;;;;12.17;5.50;;;2.70;99.90;;;;;;5041471;28;20231;-77
2022/12/08 04:14:20;;;;;;;10.90;5.30;;;2.80;99.90;;;;;;5037132;28;20930;-77
2022/12/08 04:17:10;;;;;;;14.37;4.80;;;2.80;99.90;;;;;;5053540;28;20224;-77
2022/12/08 04:19:58;;;;;;;10.77;5.37;;;2.80;99.90;;;;;;5037649;28;20250;-75
2022/12/08 04:22:47;;;;;;;10.37;5.47;;;2.70;99.90;;;;;;5044839;28;20230;-79
2022/12/08 04:25:37;;;;;;;10.17;5.43;;;2.80;99.90;;;;;;5042880;28;20805;-79
2022/12/08 04:28:28;;;;;;;9.00;5.40;;;2.80;99.90;;;;;;5044455;28;20953;-80
2022/12/08 04:31:16;;;;;;;10.17;6.07;;;2.80;99.90;;;;;;5055843;28;20584;-78
2022/12/08 04:34:07;;;;;;;13.23;6.47;;;2.90;99.90;;;;;;5039418;28;20223;-78
2022/12/08 04:36:55;;;;;;;10.67;6.50;;;2.90;99.90;;;;;;5038481;28;20698;-77
2022/12/08 04:39:44;;;;;;;11.77;6.23;;;2.90;99.90;;;;;;5045441;28;20239;-78
2022/12/08 04:42:33;;;;;;;12.20;6.07;;;3.00;99.90;;;;;;5042403;28;20224;-77
2022/12/08 04:45:21;;;;;;;14.07;7.77;;;2.90;99.90;;;;;;5058670;28;20220;-78
2022/12/08 04:48:12;;;;;;;11.67;6.50;;;2.90;99.90;;;;;;5040095;28;20888;-77
2022/12/08 04:51:02;;;;;;;9.93;6.87;;;2.90;99.90;;;;;;5044690;28;20695;-78
2022/12/08 04:53:50;;;;;;;9.33;6.63;;;2.80;99.90;;;;;;5041892;28;20219;-79
2022/12/08 04:56:39;;;;;;;10.87;7.13;;;2.80;99.90;;;;;;5038988;28;20232;-79
2022/12/08 04:59:28;;;;;;;11.63;7.00;;;2.80;99.90;;;;;;5053823;28;20726;-79
2022/12/08 05:02:17;;;;;;;12.37;7.33;;;2.90;99.90;;;;;;5040333;28;20271;-78
2022/12/08 05:05:06;;;;;;;15.30;7.37;;;2.70;99.90;;;;;;5059023;28;20230;-78
2022/12/08 05:07:57;;;;;;;13.87;7.87;;;2.80;99.90;;;;;;5040362;28;20230;-77
2022/12/08 05:10:45;;;;;;;11.07;7.37;;;2.70;99.90;;;;;;5053860;28;20235;-78
2022/12/08 05:13:34;;;;;;;11.70;7.33;;;2.80;99.90;;;;;;5058773;28;20263;-78
2022/12/08 05:16:23;;;;;;;12.07;7.53;;;2.80;99.90;;;;;;5043419;28;20228;-77
2022/12/08 05:19:12;;;;;;;11.63;7.53;;;2.70;99.90;;;;;;5049049;28;20255;-77
2022/12/08 05:22:01;;;;;;;14.23;7.20;;;2.80;99.90;;;;;;5040236;28;20243;-77
2022/12/08 05:24:51;;;;;;;13.60;7.83;;;2.80;99.90;;;;;;5017970;28;20225;-77
2022/12/08 05:27:40;;;;;;;12.23;7.87;;;2.90;99.90;;;;;;5023110;28;20232;-78
2022/12/08 05:30:29;;;;;;;13.40;7.70;;;2.90;99.90;;;;;;5021487;28;20220;-78
2022/12/08 05:33:18;;;;;;;15.77;7.80;;;2.80;99.90;;;;;;5024222;28;20220;-77
2022/12/08 05:36:07;;;;;;;10.90;7.33;;;2.80;99.90;;;;;;5033725;28;20714;-77
2022/12/08 05:38:57;;;;;;;12.00;7.73;;;2.70;99.90;;;;;;5035419;28;20230;-77
2022/12/08 05:41:47;;;;;;;11.90;7.13;;;2.60;99.90;;;;;;5039101;28;20702;-78
2022/12/08 05:44:36;;;;;;;14.80;8.33;;;2.60;99.90;;;;;;5023643;28;20251;-77
2022/12/08 05:47:24;;;;;;;15.97;8.30;;;2.70;99.90;;;;;;5041016;28;20235;-79
2022/12/08 05:50:13;;;;;;;15.20;8.93;;;2.70;99.90;;;;;;5036031;28;20232;-78
2022/12/08 05:53:02;;;;;;;14.10;7.77;;;2.70;99.90;;;;;;5035426;28;20672;-76
2022/12/08 05:55:50;;;;;;;16.30;8.57;;;2.60;99.90;;;;;;5024344;28;21067;-77
2022/12/08 05:58:41;;;;;;;16.20;8.27;;;2.70;99.90;;;;;;5024876;28;20225;-76
2022/12/08 06:01:31;;;;;;;14.23;8.27;;;2.80;99.90;;;;;;5034393;28;20596;-77
2022/12/08 06:04:20;;;;;;;14.77;7.87;;;2.90;99.90;;;;;;5016952;28;20229;-76
2022/12/08 06:07:09;;;;;;;14.13;8.47;;;2.80;99.90;;;;;;5020218;28;20243;-76
2022/12/08 06:10:04;;;;;;;14.10;9.30;;;2.90;99.90;;;;;;5026205;28;20223;-78
2022/12/08 06:12:54;;;;;;;16.87;8.10;;;2.90;99.90;;;;;;5036314;28;20230;-77
2022/12/08 06:15:44;;;;;;;14.13;8.57;;;2.90;99.90;;;;;;5040075;28;20224;-77
2022/12/08 06:18:33;;;;;;;14.43;7.97;;;2.90;99.90;;;;;;5027813;28;20232;-74
2022/12/08 06:21:22;;;;;;;13.23;8.13;;;2.90;99.90;;;;;;5016613;28;20915;-76
2022/12/08 06:24:11;;;;;;;16.67;8.20;;;3.00;99.90;;;;;;5032621;28;20219;-76
2022/12/08 06:27:00;;;;;;;13.97;7.47;;;3.10;99.90;;;;;;5031470;28;20734;-76
2022/12/08 06:29:49;;;;;;;17.10;8.07;;;3.00;99.90;;;;;;5032955;28;20224;-77
2022/12/08 06:32:39;;;;;;;12.33;7.50;;;3.00;99.90;;;;;;5013389;28;20236;-77
2022/12/08 06:35:27;;;;;;;14.87;7.93;;;2.80;99.90;;;;;;5017151;28;20710;-78
2022/12/08 06:38:16;;;;;;;14.93;8.43;;;2.70;99.90;;;;;;5019596;28;20237;-78
2022/12/08 06:41:06;;;;;;;14.57;8.07;;;2.80;99.90;;;;;;5023460;28;20230;-79
2022/12/08 06:43:56;;;;;;;20.23;8.87;;;2.90;99.90;;;;;;5033753;28;20236;-80
2022/12/08 06:46:45;;;;;;;15.00;8.00;;;2.90;99.90;;;;;;5036946;28;20236;-79
2022/12/08 06:49:35;;;;;;;15.23;8.50;;;2.80;99.90;;;;;;5026020;28;20221;-77
2022/12/08 06:52:24;;;;;;;17.60;8.13;;;3.00;99.90;;;;;;5024327;28;20331;-78
2022/12/08 06:55:13;;;;;;;18.93;8.27;;;2.80;99.90;;;;;;5031877;28;20215;-77
2022/12/08 06:58:21;;;;;;;15.30;7.97;;;2.90;99.90;;;;;;5020102;28;20249;-77
2022/12/08 07:01:12;;;;;;;16.40;8.00;;;2.90;99.90;;;;;;5024289;28;20251;-78
2022/12/08 07:04:02;;;;;;;17.80;8.30;;;2.90;99.90;;;;;;5036972;28;20283;-76
2022/12/08 07:06:52;;;;;;;11.87;8.10;;;2.90;99.90;;;;;;5026556;28;20225;-78
2022/12/08 07:09:40;;;;;;;13.80;7.83;;;3.00;99.90;;;;;;5024058;28;20246;-79
2022/12/08 07:12:29;;;;;;;14.60;8.57;;;3.00;99.90;;;;;;5027470;28;20221;-78
2022/12/08 07:15:19;;;;;;;16.90;8.53;;;2.90;99.90;;;;;;5023239;28;20307;-77
2022/12/08 07:18:08;;;;;;;14.50;8.77;;;2.90;99.90;;;;;;5039481;28;20312;-77
2022/12/08 07:20:57;;;;;;;14.17;8.33;;;3.00;99.90;;;;;;5052375;28;20224;-78
2022/12/08 07:23:48;;;;;;;19.47;8.53;;;3.00;99.90;;;;;;5041215;28;20914;-78
2022/12/08 07:26:44;;;;;;;19.50;9.67;;;3.00;99.90;;;;;;5056412;28;20219;-78
2022/12/08 07:29:33;;;;;;;17.00;8.53;;;3.00;99.90;;;;;;5057884;28;20220;-76
2022/12/08 07:32:21;;;;;;;18.37;8.93;;;3.00;99.90;;;;;;5042207;28;20227;-78
2022/12/08 07:35:10;;;;;;;17.73;9.17;;;2.90;99.90;;;;;;5037987;28;20224;-79
2022/12/08 07:37:59;;;;;;;23.00;9.37;;;2.90;99.90;;;;;;5054939;28;20243;-78
2022/12/08 07:40:49;;;;;;;15.93;9.30;;;2.90;99.90;;;;;;5039928;28;20920;-78
2022/12/08 07:43:38;;;;;;;17.60;9.70;;;3.00;99.90;;;;;;5059493;28;20244;-78
2022/12/08 07:46:27;;;;;;;17.63;9.27;;;2.90;99.90;;;;;;5039410;28;20228;-78
2022/12/08 07:49:16;;;;;;;15.90;9.57;;;2.80;99.90;;;;;;5060024;28;20220;-78
2022/12/08 07:52:05;;;;;;;16.63;8.70;;;2.80;99.90;;;;;;5057593;28;20231;-78
2022/12/08 07:54:53;;;;;;;19.67;9.67;;;2.80;99.90;;;;;;5055869;28;20220;-77
2022/12/08 07:57:47;;;;;;;17.63;9.07;;;3.00;99.90;;;;;;5054343;28;20224;-77
2022/12/08 08:00:36;;;;;;;18.17;9.73;;;3.00;99.90;;;;;;5057580;28;21323;-77
2022/12/08 08:03:25;;;;;;;16.20;9.20;;;3.10;99.90;;;;;;5042406;28;20224;-77
2022/12/08 08:06:13;;;;;;;17.77;9.00;;;3.00;99.90;;;;;;5041568;28;20240;-78
2022/12/08 08:09:02;;;;;;;13.33;8.07;;;3.10;99.90;;;;;;5040948;28;20244;-78
2022/12/08 08:11:51;;;;;;;17.23;8.23;;;3.00;99.90;;;;;;5042925;28;20261;-78
2022/12/08 08:15:06;;;;;;;13.37;8.07;;;2.90;99.90;;;;;;5055649;28;20334;-79
2022/12/08 08:17:55;;;;;;;16.33;8.20;;;3.00;99.90;;;;;;5044304;28;20209;-78
2022/12/08 08:20:44;;;;;;;15.80;8.03;;;3.10;99.90;;;;;;5053552;28;20238;-78
2022/12/08 08:23:32;;;;;;;18.33;9.47;;;3.10;99.90;;;;;;5048466;28;20238;-77
2022/12/08 08:26:21;;;;;;;16.70;9.10;;;3.10;99.90;;;;;;5039618;28;20243;-77
2022/12/08 08:29:10;;;;;;;17.37;8.47;;;3.10;99.90;;;;;;5040043;28;20220;-77
2022/12/08 08:32:00;;;;;;;13.80;7.67;;;3.20;99.90;;;;;;5059423;28;20232;-77
2022/12/08 08:34:49;;;;;;;17.93;8.17;;;3.20;99.90;;;;;;5057401;28;20233;-76
2022/12/08 08:37:38;;;;;;;17.13;8.80;;;3.10;99.90;;;;;;5057753;28;20232;-77
2022/12/08 08:40:33;;;;;;;15.43;8.03;;;3.10;99.90;;;;;;5057810;28;20898;-78
2022/12/08 08:43:29;;;;;;;23.07;9.40;;;3.10;99.90;;;;;;5043359;28;20227;-77
2022/12/08 08:46:25;;;;;;;17.30;9.07;;;3.10;99.90;;;;;;5054756;28;20271;-74
2022/12/08 08:49:16;;;;;;;18.63;9.73;;;3.20;99.90;;;;;;5042156;28;20236;-76
2022/12/08 08:52:05;;;;;;;20.40;9.00;;;3.20;99.90;;;;;;5058104;28;20223;-78
2022/12/08 08:54:54;;;;;;;19.23;9.70;;;3.20;99.90;;;;;;5059641;28;20591;-77
2022/12/08 08:57:43;;;;;;;15.83;9.60;;;3.20;99.90;;;;;;5046933;28;20237;-77
2022/12/08 09:00:32;;;;;;;18.27;10.27;;;3.30;99.90;;;;;;5053527;28;20224;-78
2022/12/08 09:03:20;;;;;;;17.70;10.33;;;3.30;99.90;;;;;;5059149;28;20586;-78
2022/12/08 09:06:11;;;;;;;18.33;10.30;;;3.40;99.90;;;;;;5057077;28;21803;-77
2022/12/08 09:09:00;;;;;;;18.63;9.77;;;3.50;99.90;;;;;;5040156;28;20229;-84
2022/12/08 09:11:48;;;;;;;17.03;9.67;;;3.60;99.90;;;;;;5038595;28;20238;-75
2022/12/08 09:14:37;;;;;;;15.93;9.77;;;3.60;99.90;;;;;;5044067;28;20401;-74
2022/12/08 09:17:26;;;;;;;19.40;10.53;;;3.70;99.90;;;;;;5057681;28;20235;-76
2022/12/08 09:20:15;;;;;;;19.47;11.37;;;3.70;99.90;;;;;;5039857;28;20223;-76
2022/12/08 09:23:05;;;;;;;21.97;11.63;;;3.70;99.90;;;;;;5040884;28;20636;-76
2022/12/08 09:25:54;;;;;;;19.83;11.33;;;3.70;99.90;;;;;;5034741;28;20910;-77
2022/12/08 09:28:45;;;;;;;21.67;11.83;;;3.70;99.90;;;;;;5052247;28;20224;-77
2022/12/08 09:31:34;;;;;;;22.83;11.97;;;3.80;99.90;;;;;;5054930;28;20720;-77
2022/12/08 09:34:23;;;;;;;21.57;12.10;;;3.70;99.90;;;;;;5039597;28;20303;-77
2022/12/08 09:37:11;;;;;;;21.97;12.47;;;3.80;99.90;;;;;;5037605;28;20232;-76
2022/12/08 09:40:01;;;;;;;21.37;12.93;;;3.80;99.90;;;;;;5037973;28;20220;-77
2022/12/08 09:42:55;;;;;;;21.47;12.13;;;3.80;99.90;;;;;;5054239;28;20227;-78
2022/12/08 09:45:45;;;;;;;24.53;12.87;;;3.90;99.90;;;;;;5038971;28;20728;-79
2022/12/08 09:48:37;;;;;;;21.03;12.57;;;3.90;99.90;;;;;;5051224;28;20686;-77
2022/12/08 09:51:30;;;;;;;21.90;13.07;;;4.00;99.90;;;;;;5057301;28;20259;-76
2022/12/08 09:54:22;;;;;;;21.67;13.40;;;4.00;99.90;;;;;;5044460;28;20738;-76
2022/12/08 09:57:19;;;;;;;21.40;13.60;;;3.80;99.90;;;;;;5051798;28;20228;-74
2022/12/08 10:00:14;;;;;;;27.90;14.33;;;3.90;99.90;;;;;;5053279;28;20228;-76
2022/12/08 10:03:03;;;;;;;21.13;13.57;;;4.00;99.90;;;;;;5041096;28;20222;-76
2022/12/08 10:05:57;;;;;;;23.00;13.03;;;4.10;99.90;;;;;;5041885;28;20247;-79
2022/12/08 10:08:58;;;;;;;23.00;14.17;;;4.00;99.90;;;;;;5055817;28;20224;-76
2022/12/08 10:11:53;;;;;;;25.70;14.80;;;4.00;99.90;;;;;;5038768;28;20211;-74
2022/12/08 10:14:49;;;;;;;21.03;13.90;;;4.10;99.90;;;;;;5043934;28;20216;-75
2022/12/08 10:17:44;;;;;;;26.40;14.37;;;4.10;99.90;;;;;;5052518;28;20239;-78
2022/12/08 10:20:38;;;;;;;28.47;14.67;;;4.20;99.90;;;;;;5056151;28;20235;-78
2022/12/08 10:23:32;;;;;;;22.97;14.33;;;4.30;99.90;;;;;;5040706;28;20224;-78
2022/12/08 10:26:22;;;;;;;23.80;14.83;;;4.40;99.90;;;;;;5055557;28;20238;-76
2022/12/08 10:29:13;;;;;;;23.97;14.47;;;4.20;99.90;;;;;;5041979;28;20228;-77
2022/12/08 10:32:14;;;;;;;21.97;14.27;;;4.20;99.90;;;;;;5057050;28;20232;-77
2022/12/08 10:35:06;;;;;;;23.57;15.20;;;4.20;99.90;;;;;;5053732;28;20749;-79
2022/12/08 10:37:57;;;;;;;22.37;14.20;;;4.20;99.90;;;;;;5048732;28;20228;-76
2022/12/08 10:40:48;;;;;;;22.87;15.60;;;4.20;99.90;;;;;;5056484;28;20224;-78
2022/12/08 10:43:44;;;;;;;26.20;14.87;;;4.20;99.90;;;;;;5039931;28;20212;-76
2022/12/08 10:46:37;;;;;;;22.37;15.33;;;4.20;99.90;;;;;;5039456;28;20239;-77
2022/12/08 10:49:32;;;;;;;24.47;14.90;;;4.10;99.90;;;;;;5056770;28;20242;-77
2022/12/08 10:52:23;;;;;;;25.47;15.80;;;4.10;99.90;;;;;;5055814;28;20713;-76
2022/12/08 10:55:17;;;;;;;25.03;16.00;;;4.10;99.90;;;;;;5057559;28;20224;-76
2022/12/08 10:58:06;;;;;;;24.20;15.73;;;4.20;99.90;;;;;;5054576;28;20220;-76
2022/12/08 11:00:57;;;;;;;26.07;16.77;;;4.30;99.90;;;;;;5039875;28;20213;-73
2022/12/08 11:03:50;;;;;;;29.33;17.57;;;4.50;99.90;;;;;;5059520;28;20999;-72
2022/12/08 11:06:41;;;;;;;30.30;17.03;;;4.40;99.90;;;;;;5060884;28;20296;-75
2022/12/08 11:09:45;;;;;;;26.50;17.97;;;4.60;99.90;;;;;;5045166;28;20613;-74
2022/12/08 11:12:35;;;;;;;27.93;17.73;;;4.80;99.90;;;;;;5057001;28;20216;-76
2022/12/08 11:15:36;;;;;;;29.27;18.07;;;4.80;99.90;;;;;;5041458;28;20216;-74
2022/12/08 11:18:28;;;;;;;28.23;18.13;;;4.70;99.90;;;;;;5047715;28;20232;-76
2022/12/08 11:21:19;;;;;;;27.37;17.87;;;4.60;99.90;;;;;;5042338;28;20572;-78
2022/12/08 11:24:22;;;;;;;26.70;17.37;;;4.60;99.90;;;;;;5056027;28;20243;-76
2022/12/08 11:27:10;;;;;;;33.50;18.60;;;4.60;99.90;;;;;;5038908;28;20223;-75
2022/12/08 11:30:00;;;;;;;28.50;18.33;;;4.60;99.90;;;;;;5040602;28;20221;-76
2022/12/08 11:32:53;;;;;;;29.10;18.50;;;4.60;99.90;;;;;;5043503;28;20312;-76
2022/12/08 11:35:45;;;;;;;30.00;19.50;;;4.50;99.90;;;;;;5058706;28;20217;-74
2022/12/08 11:38:39;;;;;;;25.47;18.50;;;4.60;99.90;;;;;;5050720;28;20224;-75
2022/12/08 11:41:33;;;;;;;27.93;19.03;;;4.60;99.90;;;;;;5045125;28;20236;-74
2022/12/08 11:44:29;;;;;;;30.57;19.40;;;4.70;99.90;;;;;;5055528;28;20233;-74
2022/12/08 11:47:24;;;;;;;30.43;19.50;;;4.80;99.90;;;;;;5039610;28;20216;-75
2022/12/08 11:50:21;;;;;;;31.03;20.00;;;4.80;99.90;;;;;;5056454;28;20225;-77
2022/12/08 11:53:18;;;;;;;29.03;19.63;;;4.80;99.90;;;;;;5046343;28;20223;-76
2022/12/08 11:56:15;;;;;;;36.00;22.50;;;4.70;99.90;;;;;;5042715;28;20254;-78
2022/12/08 11:59:15;;;;;;;30.13;20.27;;;4.70;99.90;;;;;;5044565;28;20995;-79
2022/12/08 12:02:05;;;;;;;30.30;20.63;;;4.60;99.90;;;;;;5042626;28;20780;-79
2022/12/08 12:04:58;;;;;;;29.43;20.73;;;4.50;99.90;;;;;;5040388;28;20216;-77
2022/12/08 12:08:06;;;;;;;31.00;20.67;;;4.50;99.90;;;;;;5056109;28;21009;-76
2022/12/08 12:11:07;;;;;;;34.73;19.67;;;4.40;99.90;;;;;;5055605;28;20227;-78
2022/12/08 12:14:10;;;;;;;30.20;20.00;;;4.40;99.90;;;;;;5055007;28;20231;-78
2022/12/08 12:17:03;;;;;;;38.23;20.90;;;4.40;99.90;;;;;;5051150;28;20211;-81
2022/12/08 12:19:53;;;;;;;34.03;20.93;;;4.40;99.90;;;;;;5042201;28;20250;-79
2022/12/08 12:22:46;;;;;;;33.57;21.07;;;4.50;99.90;;;;;;5056954;28;21023;-78
2022/12/08 12:25:36;;;;;;;35.07;20.67;;;4.40;99.90;;;;;;5046846;28;20223;-78
2022/12/08 12:28:28;;;;;;;30.90;20.33;;;4.30;99.90;;;;;;5052766;28;20289;-78
2022/12/08 12:31:21;;;;;;;31.02;23.27;;;4.40;99.90;;;;;;5034105;28;20443;-78
2022/12/08 12:34:18;;;;;;;29.60;21.23;;;4.30;99.90;;;;;;5046323;28;20232;-79
2022/12/08 12:37:10;;;;;;;33.07;21.00;;;4.50;99.90;;;;;;5045339;28;20224;-77
2022/12/08 12:40:03;;;;;;;36.63;20.77;;;4.60;99.90;;;;;;5041121;28;20711;-80
2022/12/08 12:43:23;;;;;;;34.67;19.23;;;4.50;99.90;;;;;;5042929;28;20228;-78
2022/12/08 12:46:38;;;;;;;30.93;20.03;;;4.60;99.90;;;;;;5036298;28;20271;-80
2022/12/08 12:49:53;;;;;;;32.03;21.30;;;4.40;99.90;;;;;;5056741;28;20229;-77
2022/12/08 12:52:48;;;;;;;28.20;19.10;;;4.40;99.90;;;;;;5057274;28;20224;-78
2022/12/08 12:55:53;;;;;;;33.57;21.37;;;4.50;99.90;;;;;;5059609;28;20221;-79
2022/12/08 12:58:42;;;;;;;31.90;20.40;;;4.60;99.90;;;;;;5054386;28;20228;-78
2022/12/08 13:01:54;;;;;;;34.07;21.83;;;4.50;99.90;;;;;;5040861;28;20248;-77
2022/12/08 13:04:52;;;;;;;32.13;20.80;;;4.60;99.90;;;;;;5058157;28;20254;-78
2022/12/08 13:07:48;;;;;;;33.47;20.90;;;4.60;99.90;;;;;;5056309;28;20235;-79
2022/12/08 13:10:40;;;;;;;29.97;20.00;;;4.70;99.90;;;;;;5038955;28;20307;-79
2022/12/08 13:13:29;;;;;;;32.37;21.53;;;4.50;99.90;;;;;;5042404;28;20227;-79
2022/12/08 13:16:24;;;;;;;36.17;21.47;;;4.50;99.90;;;;;;5037143;28;20251;-79
2022/12/08 13:19:16;;;;;;;32.87;21.70;;;4.50;99.90;;;;;;5030342;28;20569;-77
2022/12/08 13:22:42;;;;;;;32.20;21.30;;;4.50;99.90;;;;;;5024293;28;20248;-78
2022/12/08 13:26:07;;;;;;;32.23;21.27;;;4.50;99.90;;;;;;5022244;28;20234;-78
2022/12/08 13:29:15;;;;;;;35.00;22.53;;;4.50;99.90;;;;;;5022518;28;20225;-78
2022/12/08 13:32:24;;;;;;;32.77;22.10;;;4.60;99.90;;;;;;5034270;28;20255;-77
2022/12/08 13:35:13;;;;;;;32.20;21.40;;;4.60;99.90;;;;;;5016754;28;20221;-78
2022/12/08 13:38:03;;;;;;;36.63;20.87;;;4.60;99.90;;;;;;5033687;28;20591;-78
2022/12/08 13:40:55;;;;;;;34.00;21.80;;;4.60;99.90;;;;;;5023385;28;20618;-79
2022/12/08 13:43:48;;;;;;;33.53;22.53;;;4.60;99.90;;;;;;5018318;28;20220;-80
2022/12/08 13:46:58;;;;;;;30.27;20.63;;;4.60;99.90;;;;;;5032890;28;20281;-78
2022/12/08 13:50:13;;;;;;;35.77;22.80;;;4.60;99.90;;;;;;5025546;28;20290;-78
2022/12/08 13:53:26;;;;;;;34.27;21.83;;;4.60;99.90;;;;;;5014261;28;20224;-78
2022/12/08 13:56:41;;;;;;;32.70;21.33;;;4.50;99.90;;;;;;5024288;28;20684;-79
2022/12/08 13:59:50;;;;;;;35.50;22.53;;;4.50;99.90;;;;;;5036882;28;20213;-78
2022/12/08 14:02:43;;;;;;;34.80;21.30;;;4.40;99.90;;;;;;5027736;28;20232;-78
2022/12/08 14:05:41;;;;;;;32.20;21.73;;;4.40;99.90;;;;;;5018078;28;20212;-80
2022/12/08 14:08:55;;;;;;;31.37;21.47;;;4.50;99.90;;;;;;5019487;28;20217;-78
2022/12/08 14:12:02;;;;;;;33.00;21.37;;;4.40;99.90;;;;;;5016720;28;20223;-77
2022/12/08 14:14:53;;;;;;;33.90;22.30;;;4.40;99.90;;;;;;5037835;28;20218;-78
2022/12/08 14:18:02;;;;;;;36.23;22.03;;;4.40;99.90;;;;;;5028587;28;22649;-76
2022/12/08 14:21:00;;;;;;;32.77;21.77;;;4.50;99.90;;;;;;5060770;28;20703;-76
2022/12/08 14:24:11;;;;;;;32.87;21.47;;;4.50;99.90;;;;;;5063161;28;20271;-76
2022/12/08 14:27:03;;;;;;;36.40;22.00;;;4.40;99.90;;;;;;5055335;28;20235;-79
2022/12/08 14:29:55;;;;;;;32.43;21.27;;;4.40;99.90;;;;;;5059815;28;20228;-79
2022/12/08 14:32:47;;;;;;;34.30;21.27;;;4.50;99.90;;;;;;5047938;28;20499;-78
2022/12/08 14:35:37;;;;;;;34.63;22.93;;;4.40;99.90;;;;;;5046970;28;20215;-79
2022/12/08 14:38:26;;;;;;;33.20;20.87;;;4.40;99.90;;;;;;5060234;28;20378;-79
2022/12/08 14:41:15;;;;;;;37.60;22.83;;;4.50;99.90;;;;;;5045898;28;20254;-79
2022/12/08 14:44:24;;;;;;;34.43;22.07;;;4.50;99.90;;;;;;5065786;28;20231;-78
2022/12/08 14:47:19;;;;;;;34.13;20.87;;;4.60;99.90;;;;;;5047071;28;20216;-79
2022/12/08 14:50:42;;;;;;;33.37;21.40;;;4.50;99.90;;;;;;5055940;28;20220;-78
2022/12/08 14:53:38;;;;;;;35.80;22.23;;;4.60;99.90;;;;;;5056277;28;20221;-74
2022/12/08 14:56:32;;;;;;;31.53;21.60;;;4.60;99.90;;;;;;5044423;28;20220;-77
2022/12/08 14:59:28;;;;;;;35.10;21.83;;;4.50;99.90;;;;;;5043007;28;20216;-77
2022/12/08 15:02:27;;;;;;;34.87;21.67;;;4.50;99.90;;;;;;5044506;28;20247;-78